FredonyerEastRWIS Atmospheric Data: 06/19/2017 Summary  Detailed Graphs  Station List

  Temperature     Wind Precipitation Visibility
Timestamp Air Wet
Bulb
Dew-
point
24-hr
Max
24-hr
Min
Relative
Humidity
Atmospheric
Pressure
Avg
Speed
Avg
Dir
Spot
Speed
Spot
Dir
Max
Speed
Max
Dir
  Rate Situation Start End 1 hr 3 hr 6 hr 12 hr 24 hr   Situation
Date Time °F °F °F °F °F % in Hg mph ° mph ° mph ° Y/N in/hr text Date Time Date Time in in in in in mi text
06/19/2017 12:08 AM 60.44 50.00 37.40 90.14 48.20 42.0 Not Reported 0.00 SW 0.00 SW 1.57 NW No x No Precipitation 06/18/2017 08:49 PM 06/18/2017 08:50 PM x x x x x Not Reported Not Reported
06/19/2017 12:24 AM 60.08 49.82 37.40 90.14 48.20 42.0 Not Reported 0.00 NW 0.00 SW 0.22 NW No x No Precipitation 06/18/2017 08:49 PM 06/18/2017 08:50 PM x x x x x Not Reported Not Reported
06/19/2017 12:41 AM 59.72 49.82 37.58 90.14 48.20 43.0 Not Reported 0.67 NW 0.22 NW 1.34 NW No x No Precipitation 06/18/2017 08:49 PM 06/18/2017 08:50 PM x x x x x Not Reported Not Reported
06/19/2017 12:53 AM 59.72 49.64 37.40 90.14 48.20 43.0 Not Reported 0.00 W 0.00 W 1.34 W No x No Precipitation 06/18/2017 08:49 PM 06/18/2017 08:50 PM x x x x x Not Reported Not Reported
06/19/2017 01:08 AM 59.36 49.64 37.76 90.14 48.20 44.0 Not Reported 0.00 SW 0.00 SW 0.00 x No x No Precipitation 06/18/2017 08:49 PM 06/18/2017 08:50 PM x x x x x Not Reported Not Reported
06/19/2017 01:23 AM 59.36 49.64 37.94 90.14 48.20 44.0 Not Reported 0.22 NW 0.00 NW 0.67 NW No x No Precipitation 06/18/2017 08:49 PM 06/18/2017 08:50 PM x x x x x Not Reported Not Reported
06/19/2017 01:38 AM 59.18 49.46 37.76 90.14 48.20 44.0 Not Reported 0.00 NW 0.00 NW 1.57 NW No x No Precipitation 06/18/2017 08:49 PM 06/18/2017 08:50 PM x x x x x Not Reported Not Reported
06/19/2017 01:54 AM 58.82 49.28 37.58 90.14 48.20 45.0 Not Reported 0.89 NW 0.22 NW 1.34 NW No x No Precipitation 06/18/2017 08:49 PM 06/18/2017 08:50 PM x x x x x Not Reported Not Reported
06/19/2017 02:09 AM 58.64 49.28 37.76 90.14 48.20 45.0 Not Reported 0.00 NE 0.00 NE 0.22 NW No x No Precipitation 06/18/2017 08:49 PM 06/18/2017 08:50 PM x x x x x Not Reported Not Reported
06/19/2017 02:24 AM 58.64 49.28 37.94 90.14 48.20 45.0 Not Reported 0.00 W 0.00 W 1.34 NW No x No Precipitation 06/18/2017 08:49 PM 06/18/2017 08:50 PM x x x x x Not Reported Not Reported
06/19/2017 02:40 AM 58.46 48.92 37.76 90.14 48.20 45.0 Not Reported 0.00 W 0.00 W 0.89 W No x No Precipitation 06/18/2017 08:49 PM 06/18/2017 08:50 PM x x x x x Not Reported Not Reported
06/19/2017 02:53 AM 58.10 48.92 37.76 90.14 48.20 46.0 Not Reported 0.00 W 0.00 W 0.00 x No x No Precipitation 06/18/2017 08:49 PM 06/18/2017 08:50 PM x x x x x Not Reported Not Reported
06/19/2017 03:09 AM 57.74 48.56 37.58 90.14 48.20 47.0 Not Reported 0.00 W 0.00 W 1.79 N No x No Precipitation 06/18/2017 08:49 PM 06/18/2017 08:50 PM x x x x x Not Reported Not Reported
06/19/2017 03:26 AM 57.38 48.38 37.58 90.14 48.20 47.0 Not Reported 0.00 NW 0.00 W 0.00 x No x No Precipitation 06/18/2017 08:49 PM 06/18/2017 08:50 PM x x x x x Not Reported Not Reported
06/19/2017 03:39 AM 56.84 48.20 37.58 90.14 48.20 48.0 Not Reported 0.00 W 0.00 W 0.22 W No x No Precipitation 06/18/2017 08:49 PM 06/18/2017 08:50 PM x x x x x Not Reported Not Reported
06/19/2017 03:55 AM 56.84 48.20 37.94 90.14 48.20 49.0 Not Reported 0.00 SW 0.00 SW 0.00 x No x No Precipitation 06/18/2017 08:49 PM 06/18/2017 08:50 PM x x x x x Not Reported Not Reported
06/19/2017 04:08 AM 57.02 48.38 38.12 90.14 48.20 48.0 Not Reported 0.00 NW 0.22 NW 1.12 SW No x No Precipitation 06/18/2017 08:49 PM 06/18/2017 08:50 PM x x x x x Not Reported Not Reported
06/19/2017 04:23 AM 56.84 48.38 37.94 90.14 48.20 48.0 Not Reported 0.89 W 0.00 W 2.24 NW No x No Precipitation 06/18/2017 08:49 PM 06/18/2017 08:50 PM x x x x x Not Reported Not Reported
06/19/2017 04:40 AM 56.30 48.02 37.76 90.14 48.20 49.0 Not Reported 0.00 S 0.00 S 1.34 S No x No Precipitation 06/18/2017 08:49 PM 06/18/2017 08:50 PM x x x x x Not Reported Not Reported
06/19/2017 04:53 AM 55.58 47.66 37.94 90.14 48.20 51.0 Not Reported 0.00 NW 0.00 NW 0.00 x No x No Precipitation 06/18/2017 08:49 PM 06/18/2017 08:50 PM x x x x x Not Reported Not Reported
06/19/2017 05:08 AM 55.22 47.30 37.94 90.14 48.20 52.0 Not Reported 0.00 NW 0.00 NW 1.79 NW No x No Precipitation 06/18/2017 08:49 PM 06/18/2017 08:50 PM x x x x x Not Reported Not Reported
06/19/2017 05:24 AM 54.86 47.12 37.76 90.14 48.20 52.0 Not Reported 0.00 NW 0.00 NW 0.00 x No x No Precipitation 06/18/2017 08:49 PM 06/18/2017 08:50 PM x x x x x Not Reported Not Reported
06/19/2017 05:38 AM 54.68 47.12 38.12 90.14 49.10 53.0 Not Reported 0.00 N 0.00 N 0.67 NW No x No Precipitation 06/18/2017 08:49 PM 06/18/2017 08:50 PM x x x x x Not Reported Not Reported
06/19/2017 05:59 AM 54.32 47.12 38.12 90.14 49.10 53.0 Not Reported 0.00 NW 0.00 S 1.57 NW No x No Precipitation 06/18/2017 08:49 PM 06/18/2017 08:50 PM x x x x x Not Reported Not Reported
06/19/2017 06:09 AM 54.86 47.30 38.48 90.14 49.10 53.0 Not Reported 0.00 N 0.00 N 0.00 x No x No Precipitation 06/18/2017 08:49 PM 06/18/2017 08:50 PM x x x x x Not Reported Not Reported
06/19/2017 06:24 AM 55.04 47.66 39.02 90.14 49.10 54.0 Not Reported 0.22 NW 0.00 NW 1.12 NW No x No Precipitation 06/18/2017 08:49 PM 06/18/2017 08:50 PM x x x x x Not Reported Not Reported
06/19/2017 06:40 AM 55.58 48.20 39.92 90.14 54.32 55.0 Not Reported 0.00 NW 0.00 NW 0.67 NW No x No Precipitation 06/18/2017 08:49 PM 06/18/2017 08:50 PM x x x x x Not Reported Not Reported
06/19/2017 07:07 AM 56.48 50.90 41.36 90.14 54.32 56.0 Not Reported 0.00 N 0.22 N 0.67 N No x No Precipitation 06/18/2017 08:49 PM 06/18/2017 08:50 PM x x x x x Not Reported Not Reported
06/19/2017 07:14 AM 59.18 51.80 43.16 90.14 54.32 52.0 Not Reported 0.00 E 0.00 NE 1.12 N No x No Precipitation 06/18/2017 08:49 PM 06/18/2017 08:50 PM x x x x x Not Reported Not Reported
06/19/2017 07:23 AM 62.60 53.06 43.16 90.14 54.32 48.0 Not Reported 0.00 NE 0.00 NE 0.00 x No x No Precipitation 06/18/2017 08:49 PM 06/18/2017 08:50 PM x x x x x Not Reported Not Reported
06/19/2017 08:04 AM 67.10 57.92 44.24 90.14 54.32 x Not Reported 0.00 NE 0.00 x 0.00 x No x No Precipitation   06/18/2017 08:50 PM x x x x x Not Reported Not Reported
06/19/2017 08:09 AM 72.86 57.56 41.36 90.14 54.32 31.0 Not Reported 0.67 N 1.79 NE 2.24 NE No x No Precipitation 06/18/2017 08:49 PM 06/18/2017 08:50 PM x x x x x Not Reported Not Reported
06/19/2017 08:24 AM 73.94 58.10 41.00 90.14 54.32 30.0 Not Reported 0.22 NE 0.00 N 1.34 N No x No Precipitation 06/18/2017 08:49 PM 06/18/2017 08:50 PM x x x x x Not Reported Not Reported
06/19/2017 08:38 AM 73.76 58.10 42.08 90.14 54.32 32.0 Not Reported 0.45 SE 0.22 SE 2.01 S No x No Precipitation 06/18/2017 08:49 PM 06/18/2017 08:50 PM x x x x x Not Reported Not Reported
06/19/2017 08:53 AM 73.40 58.10 41.90 90.14 54.32 32.0 Not Reported 0.00 SE 0.00 S 0.00 x No x No Precipitation 06/18/2017 08:49 PM 06/18/2017 08:50 PM x x x x x Not Reported Not Reported
06/19/2017 09:08 AM 75.20 58.82 41.36 90.14 54.32 29.0 Not Reported 0.22 SW 1.12 NW 1.79 SW No x No Precipitation 06/18/2017 08:49 PM 06/18/2017 08:50 PM x x x x x Not Reported Not Reported
06/19/2017 09:24 AM 76.82 59.18 38.66 90.14 54.32 25.0 Not Reported 2.01 SE 4.03 SE 4.92 S No x No Precipitation 06/18/2017 08:49 PM 06/18/2017 08:50 PM x x x x x Not Reported Not Reported
06/19/2017 09:39 AM 78.98 60.44 39.38 90.14 54.32 24.0 Not Reported 2.01 SE 1.79 SE 3.80 S No x No Precipitation 06/18/2017 08:49 PM 06/18/2017 08:50 PM x x x x x Not Reported Not Reported
06/19/2017 09:54 AM 79.52 60.80 38.84 90.14 54.32 23.0 Not Reported 2.01 SE 0.00 SW 4.03 SW No x No Precipitation 06/18/2017 08:49 PM 06/18/2017 08:50 PM x x x x x Not Reported Not Reported
06/19/2017 10:09 AM 81.86 61.88 37.76 90.14 54.32 20.0 Not Reported 3.58 S 0.22 E 6.49 S No x No Precipitation 06/19/2017 10:01 AM 06/19/2017 10:02 AM x x x x x Not Reported Not Reported
06/19/2017 10:23 AM 83.30 62.60 36.68 90.14 54.32 19.0 Not Reported 1.34 N 1.12 NE 6.93 E No x No Precipitation 06/19/2017 10:01 AM 06/19/2017 10:02 AM x x x x x Not Reported Not Reported
06/19/2017 10:39 AM 84.20 63.14 36.50 90.14 54.32 18.0 Not Reported 2.01 N 3.80 SE 7.38 N No x No Precipitation 06/19/2017 10:01 AM 06/19/2017 10:02 AM x x x x x Not Reported Not Reported
06/19/2017 10:55 AM 86.00 64.22 37.40 90.14 54.32 17.0 Not Reported 2.91 N 3.80 N 6.04 N No x No Precipitation 06/19/2017 10:01 AM 06/19/2017 10:02 AM x x x x x Not Reported Not Reported
06/19/2017 11:10 AM 87.26 64.94 37.58 90.14 54.32 17.0 Not Reported 2.24 E 5.37 SE 4.47 N No x No Precipitation 06/19/2017 10:01 AM 06/19/2017 10:02 AM x x x x x Not Reported Not Reported
06/19/2017 11:23 AM 87.08 64.76 37.22 90.14 54.32 17.0 Not Reported 4.25 SE 3.36 N 13.87 SE No x No Precipitation 06/19/2017 10:01 AM 06/19/2017 10:02 AM x x x x x Not Reported Not Reported
06/19/2017 11:38 AM 88.34 65.48 37.22 90.14 54.32 16.0 Not Reported 2.68 NE 7.16 E 10.07 E No x No Precipitation 06/19/2017 10:01 AM 06/19/2017 10:02 AM x x x x x Not Reported Not Reported
06/19/2017 11:53 AM 88.16 65.48 36.14 90.14 54.32 15.0 Not Reported 2.01 NE 1.34 W 6.71 SE No x No Precipitation 06/19/2017 10:01 AM 06/19/2017 10:02 AM x x x x x Not Reported Not Reported
06/19/2017 12:09 PM 88.88 65.84 36.50 90.14 54.32 15.0 Not Reported 2.91 E 2.46 E 6.93 E No x No Precipitation 06/19/2017 10:01 AM 06/19/2017 10:02 AM x x x x x Not Reported Not Reported
06/19/2017 12:24 PM 89.78 66.20 36.68 90.14 54.32 15.0 Not Reported 3.36 NE 2.46 W 7.16 NE No x No Precipitation 06/19/2017 10:01 AM 06/19/2017 10:02 AM x x x x x Not Reported Not Reported
06/19/2017 12:38 PM 89.78 66.20 36.86 91.40 54.32 15.0 Not Reported 1.79 N 2.24 NE 6.26 N No x No Precipitation 06/19/2017 10:01 AM 06/19/2017 10:02 AM x x x x x Not Reported Not Reported
06/19/2017 12:54 PM 90.68 66.92 36.68 91.40 54.32 15.0 Not Reported 2.68 SW 4.70 S 6.71 E No x No Precipitation 06/19/2017 10:01 AM 06/19/2017 10:02 AM x x x x x Not Reported Not Reported
06/19/2017 01:08 PM 91.58 67.28 36.86 91.58 54.32 14.0 Not Reported 2.46 NE 0.89 SE 6.71 SE No x No Precipitation 06/19/2017 10:01 AM 06/19/2017 10:02 AM x x x x x Not Reported Not Reported
06/19/2017 01:23 PM 92.12 67.46 36.68 92.48 54.32 14.0 Not Reported 2.91 E 3.36 SE 5.82 S No x No Precipitation 06/19/2017 10:01 AM 06/19/2017 10:02 AM x x x x x Not Reported Not Reported
06/19/2017 01:40 PM 92.12 67.64 34.88 92.66 54.32 13.0 Not Reported 4.03 S 3.13 S 8.50 SE No x No Precipitation 06/19/2017 10:01 AM 06/19/2017 10:02 AM x x x x x Not Reported Not Reported
06/19/2017 01:53 PM 93.20 68.36 33.62 93.38 54.32 12.0 Not Reported 5.59 SW 7.61 SW 9.40 SW No x No Precipitation 06/19/2017 10:01 AM 06/19/2017 10:02 AM x x x x x Not Reported Not Reported
06/19/2017 02:10 PM 94.10 69.08 32.00 94.46 54.32 10.0 Not Reported 4.70 SW 8.28 NW 8.05 S No x No Precipitation 06/19/2017 10:01 AM 06/19/2017 10:02 AM x x x x x Not Reported Not Reported
06/19/2017 02:24 PM 93.56 69.26 28.94 94.46 54.32 9.0 Not Reported 6.04 N 8.50 N 10.96 NW No x No Precipitation 06/19/2017 10:01 AM 06/19/2017 10:02 AM x x x x x Not Reported Not Reported
06/19/2017 02:39 PM 94.28 69.62 29.48 95.18 54.32 9.0 Not Reported 5.59 W 6.04 SW 10.74 S No x No Precipitation 06/19/2017 10:01 AM 06/19/2017 10:02 AM x x x x x Not Reported Not Reported
06/19/2017 02:53 PM 95.36 70.16 30.20 95.54 54.32 10.0 Not Reported 5.14 W 4.70 SW 9.62 W No x No Precipitation 06/19/2017 02:44 PM 06/19/2017 02:45 PM x x x x x Not Reported Not Reported
06/19/2017 03:08 PM 95.54 70.16 30.38 95.72 54.32 9.0 Not Reported 3.36 W 10.07 W 11.18 NW No x No Precipitation 06/19/2017 02:44 PM 06/19/2017 02:45 PM x x x x x Not Reported Not Reported
06/19/2017 03:24 PM 95.00 69.98 29.84 95.72 54.32 9.0 Not Reported 5.59 S 1.79 SE 11.63 S No x No Precipitation 06/19/2017 02:44 PM 06/19/2017 02:45 PM x x x x x Not Reported Not Reported
06/19/2017 03:39 PM 95.18 70.16 30.38 95.72 54.32 10.0 Not Reported 3.13 SE 1.34 SE 10.29 SW No x No Precipitation 06/19/2017 02:44 PM 06/19/2017 02:45 PM x x x x x Not Reported Not Reported
06/19/2017 03:54 PM 96.98 70.88 31.46 96.98 54.32 9.0 Not Reported 2.24 E 4.92 S 5.59 S No x No Precipitation 06/19/2017 02:44 PM 06/19/2017 02:45 PM x x x x x Not Reported Not Reported
06/19/2017 04:09 PM 97.16 70.88 31.46 97.16 54.32 9.0 Not Reported 5.59 N 2.91 NE 9.62 N No x No Precipitation 06/19/2017 02:44 PM 06/19/2017 02:45 PM x x x x x Not Reported Not Reported
06/19/2017 04:23 PM 95.00 69.98 29.84 98.24 54.32 10.0 Not Reported 2.68 SW 1.79 SW 6.26 SW No x No Precipitation 06/19/2017 02:44 PM 06/19/2017 02:45 PM x x x x x Not Reported Not Reported
06/19/2017 04:38 PM 92.48 68.72 28.04 98.24 54.32 9.0 Not Reported 5.14 SW 0.45 SW 11.41 SW No x No Precipitation 06/19/2017 02:44 PM 06/19/2017 02:45 PM x x x x x Not Reported Not Reported
06/19/2017 04:53 PM 90.32 67.64 26.42 98.24 54.32 9.0 Not Reported 2.68 W 3.58 SW 6.71 NW No x No Precipitation 06/19/2017 02:44 PM 06/19/2017 02:45 PM x x x x x Not Reported Not Reported
06/19/2017 05:08 PM 88.88 66.92 25.52 98.24 54.32 10.0 Not Reported 5.14 NW 3.36 W 9.17 W No x No Precipitation 06/19/2017 02:44 PM 06/19/2017 02:45 PM x x x x x Not Reported Not Reported
06/19/2017 05:23 PM 86.18 65.12 24.98 98.24 54.32 10.0 Not Reported 5.37 SW 4.25 W 10.29 SW No x No Precipitation 06/19/2017 02:44 PM 06/19/2017 02:45 PM x x x x x Not Reported Not Reported
06/19/2017 05:39 PM 84.56 64.04 25.52 98.24 54.32 11.0 Not Reported 4.47 NW 3.58 W 8.72 W No x No Precipitation 06/19/2017 02:44 PM 06/19/2017 02:45 PM x x x x x Not Reported Not Reported
06/19/2017 05:54 PM 84.02 63.32 28.40 98.24 54.32 13.0 Not Reported 2.91 NW 3.36 NW 9.17 N No x No Precipitation 06/19/2017 02:44 PM 06/19/2017 02:45 PM x x x x x Not Reported Not Reported
06/19/2017 06:08 PM 84.20 63.14 30.92 98.24 54.32 14.0 Not Reported 3.58 N 2.24 W 8.05 W No x No Precipitation 06/19/2017 02:44 PM 06/19/2017 02:45 PM x x x x x Not Reported Not Reported
06/19/2017 06:23 PM 87.44 65.12 33.62 98.24 54.32 14.0 Not Reported 2.01 N 1.79 NW 5.82 N No x No Precipitation 06/19/2017 02:44 PM 06/19/2017 02:45 PM x x x x x Not Reported Not Reported
06/19/2017 06:38 PM 84.20 63.32 31.10 98.24 54.32 14.0 Not Reported 3.58 N 4.03 NE 6.04 NW No x No Precipitation 06/19/2017 02:44 PM 06/19/2017 02:45 PM x x x x x Not Reported Not Reported
06/19/2017 06:54 PM 80.96 61.16 34.16 98.24 54.32 18.0 Not Reported 1.12 NW 1.34 W 2.91 NW No x No Precipitation 06/19/2017 02:44 PM 06/19/2017 02:45 PM x x x x x Not Reported Not Reported
06/19/2017 07:08 PM 78.08 59.72 36.32 98.24 54.32 22.0 Not Reported 2.01 W 2.01 W 2.46 NW No x No Precipitation 06/19/2017 02:44 PM 06/19/2017 02:45 PM x x x x x Not Reported Not Reported
06/19/2017 07:23 PM 76.64 59.00 37.94 98.24 54.32 24.0 Not Reported 1.34 NW 1.12 N 3.13 SW No x No Precipitation 06/19/2017 02:44 PM 06/19/2017 02:45 PM x x x x x Not Reported Not Reported
06/19/2017 07:38 PM 75.20 58.46 38.48 98.24 54.32 26.0 Not Reported 1.12 NW 1.79 NW 3.13 N No x No Precipitation 06/19/2017 02:44 PM 06/19/2017 02:45 PM x x x x x Not Reported Not Reported
06/19/2017 07:54 PM 73.40 57.38 37.94 98.24 54.32 27.0 Not Reported 1.57 N 2.24 N 3.36 N No x No Precipitation 06/19/2017 02:44 PM 06/19/2017 02:45 PM x x x x x Not Reported Not Reported
06/19/2017 08:08 PM 71.96 56.48 37.76 98.24 54.32 28.0 Not Reported 1.57 W 2.46 NW 2.91 NW No x No Precipitation 06/19/2017 02:44 PM 06/19/2017 02:45 PM x x x x x Not Reported Not Reported
06/19/2017 08:23 PM 70.34 55.58 37.94 98.24 54.32 30.0 Not Reported 2.01 NW 2.68 NW 2.68 NW No x No Precipitation 06/19/2017 02:44 PM 06/19/2017 02:45 PM x x x x x Not Reported Not Reported
06/19/2017 08:38 PM 68.72 54.68 37.04 98.24 54.32 31.0 Not Reported 0.45 W 0.00 W 2.01 NW No x No Precipitation 06/19/2017 02:44 PM 06/19/2017 02:45 PM x x x x x Not Reported Not Reported
06/19/2017 08:54 PM 67.28 53.78 36.86 98.24 54.32 32.0 Not Reported 1.34 N 1.12 NE 2.91 S No x No Precipitation 06/19/2017 02:44 PM 06/19/2017 02:45 PM x x x x x Not Reported Not Reported
06/19/2017 09:08 PM 66.02 52.88 36.14 98.24 54.32 33.0 Not Reported 1.79 NW 0.00 NW 2.46 NW No x No Precipitation 06/19/2017 02:44 PM 06/19/2017 02:45 PM x x x x x Not Reported Not Reported
06/19/2017 09:23 PM 64.94 52.16 35.96 98.24 54.32 34.0 Not Reported 0.00 W 0.00 W 1.57 NW No x No Precipitation 06/19/2017 02:44 PM 06/19/2017 02:45 PM x x x x x Not Reported Not Reported
06/19/2017 09:38 PM 63.86 51.80 35.96 98.24 54.32 35.0 Not Reported 0.22 N 0.00 N 1.12 SE No x No Precipitation 06/19/2017 02:44 PM 06/19/2017 02:45 PM x x x x x Not Reported Not Reported
06/19/2017 09:54 PM 63.32 51.44 35.96 98.24 54.32 36.0 Not Reported 0.45 NW 0.00 NW 2.01 NW No x No Precipitation 06/19/2017 02:44 PM 06/19/2017 02:45 PM x x x x x Not Reported Not Reported
06/19/2017 10:08 PM 62.96 51.26 36.50 98.24 54.32 37.0 Not Reported 0.67 N 1.12 N 2.01 N No x No Precipitation 06/19/2017 02:44 PM 06/19/2017 02:45 PM x x x x x Not Reported Not Reported
06/19/2017 10:23 PM 62.78 51.26 37.04 98.24 54.32 38.0 Not Reported 1.12 NW 2.91 NW 3.13 NW No x No Precipitation 06/19/2017 02:44 PM 06/19/2017 02:45 PM x x x x x Not Reported Not Reported
06/19/2017 10:40 PM 62.42 51.08 37.22 98.24 54.32 39.0 Not Reported 0.00 NW 0.22 NW 1.12 N No x No Precipitation 06/19/2017 02:44 PM 06/19/2017 02:45 PM x x x x x Not Reported Not Reported
06/19/2017 10:53 PM 62.24 51.08 38.12 98.24 54.32 40.0 Not Reported 0.00 NW 0.00 NW 0.00 x No x No Precipitation 06/19/2017 02:44 PM 06/19/2017 02:45 PM x x x x x Not Reported Not Reported
06/19/2017 11:09 PM 61.70 51.08 38.84 98.24 54.32 42.0 Not Reported 0.00 NW 0.00 NW 0.00 x No x No Precipitation 06/19/2017 02:44 PM 06/19/2017 02:45 PM x x x x x Not Reported Not Reported
06/19/2017 11:24 PM 61.16 50.90 39.38 98.24 54.32 44.0 Not Reported 0.45 NW 0.00 NW 1.12 NW No x No Precipitation 06/19/2017 02:44 PM 06/19/2017 02:45 PM x x x x x Not Reported Not Reported
06/19/2017 11:39 PM 60.44 50.72 39.38 98.24 54.32 45.0 Not Reported 0.89 NW 0.00 W 1.34 NW No x No Precipitation 06/19/2017 02:44 PM 06/19/2017 02:45 PM x x x x x Not Reported Not Reported
06/19/2017 11:53 PM 60.44 50.90 39.92 98.24 54.32 46.0 Not Reported 0.00 NW 0.00 NW 1.34 NW No x No Precipitation 06/19/2017 02:44 PM 06/19/2017 02:45 PM x x x x x Not Reported Not Reported